createdAt,value
2019-01-09T00:00:44.799Z,3.60
2019-01-09T00:03:13.335Z,3.60
2019-01-09T00:05:41.703Z,3.60
2019-01-09T00:08:10.349Z,3.60
2019-01-09T00:10:38.711Z,3.50
2019-01-09T00:13:07.079Z,3.50
2019-01-09T00:15:35.483Z,3.50
2019-01-09T00:18:03.860Z,3.60
2019-01-09T00:20:32.214Z,3.70
2019-01-09T00:23:00.611Z,3.70
2019-01-09T00:25:30.198Z,3.60
2019-01-09T00:27:58.559Z,3.50
2019-01-09T00:30:28.467Z,3.50
2019-01-09T00:32:56.831Z,3.40
2019-01-09T00:35:25.195Z,3.50
2019-01-09T00:37:53.591Z,3.60
2019-01-09T00:40:21.955Z,3.50
2019-01-09T00:42:50.319Z,3.60
2019-01-09T00:45:18.723Z,3.50
2019-01-09T00:47:47.115Z,3.50
2019-01-09T00:50:15.479Z,3.60
2019-01-09T00:52:43.875Z,3.60
2019-01-09T00:55:12.243Z,3.50
2019-01-09T00:57:40.602Z,3.50
2019-01-09T01:00:15.419Z,3.60
2019-01-09T01:03:01.310Z,3.60
2019-01-09T01:05:50.655Z,3.50
2019-01-09T01:08:55.771Z,3.60
2019-01-09T01:11:31.623Z,3.50
2019-01-09T01:14:23.583Z,3.40
2019-01-09T01:17:03.940Z,3.40
2019-01-09T01:20:07.322Z,3.50
2019-01-09T01:22:47.774Z,3.50
2019-01-09T01:25:22.333Z,3.50
2019-01-09T01:28:16.274Z,3.40
2019-01-09T01:31:16.882Z,3.30
2019-01-09T01:33:54.338Z,3.30
2019-01-09T01:36:40.803Z,3.20
2019-01-09T01:39:24.280Z,3.30
2019-01-09T01:41:55.987Z,3.10
2019-01-09T01:44:37.107Z,3.30
2019-01-09T01:47:17.871Z,3.10
2019-01-09T01:49:49.532Z,3.10
2019-01-09T01:52:37.833Z,3.10
2019-01-09T01:55:29.033Z,3.10
2019-01-09T01:58:15.659Z,3.20
2019-01-09T02:01:11.720Z,3.20
2019-01-09T02:04:04.455Z,3.20
2019-01-09T02:06:54.407Z,3.10
2019-01-09T02:09:51.596Z,3.00
2019-01-09T02:12:35.387Z,3.00
2019-01-09T02:15:09.543Z,3.10
2019-01-09T02:17:47.562Z,3.20
2019-01-09T02:20:21.952Z,3.10
2019-01-09T02:22:53.622Z,3.00
2019-01-09T02:25:40.160Z,3.00
2019-01-09T02:28:23.615Z,3.10
2019-01-09T02:31:15.717Z,3.20
2019-01-09T02:33:44.791Z,3.10
2019-01-09T02:36:13.879Z,3.20
2019-01-09T02:38:42.688Z,3.20
2019-01-09T02:41:11.078Z,3.20
2019-01-09T02:43:39.456Z,3.20
2019-01-09T02:46:07.819Z,3.30
2019-01-09T02:48:36.222Z,3.20
2019-01-09T02:51:04.654Z,3.30
2019-01-09T02:53:33.024Z,3.30
2019-01-09T02:56:02.596Z,3.20
2019-01-09T02:58:30.964Z,3.30
2019-01-09T03:00:59.329Z,3.30
2019-01-09T03:03:27.740Z,3.30
2019-01-09T03:05:56.099Z,3.30
2019-01-09T03:08:24.467Z,3.30
2019-01-09T03:10:52.860Z,3.40
2019-01-09T03:13:21.231Z,3.40
2019-01-09T03:15:49.595Z,3.40
2019-01-09T03:18:18.664Z,3.30
2019-01-09T03:20:47.382Z,3.30
2019-01-09T03:23:15.746Z,3.20
2019-01-09T03:25:44.147Z,3.20
2019-01-09T03:28:12.840Z,3.20
2019-01-09T03:30:41.198Z,3.10
2019-01-09T03:33:10.257Z,3.10
2019-01-09T03:35:38.618Z,3.10
2019-01-09T03:38:06.988Z,3.10
2019-01-09T03:40:35.383Z,3.10
2019-01-09T03:43:03.739Z,3.00
2019-01-09T03:45:32.107Z,3.10
2019-01-09T03:48:00.508Z,3.10
2019-01-09T03:50:28.877Z,3.00
2019-01-09T03:52:57.241Z,3.00
2019-01-09T03:55:26.247Z,3.10
2019-01-09T03:57:54.603Z,3.10
2019-01-09T04:00:23.034Z,3.10
2019-01-09T04:02:51.355Z,3.10
2019-01-09T04:05:19.722Z,3.10
2019-01-09T04:07:48.187Z,3.20
2019-01-09T04:10:16.601Z,3.20
2019-01-09T04:12:44.965Z,3.20
2019-01-09T04:15:13.396Z,3.20
2019-01-09T04:17:42.004Z,3.10
2019-01-09T04:20:10.372Z,3.20
2019-01-09T04:22:38.740Z,3.10
2019-01-09T04:25:07.160Z,3.10
2019-01-09T04:27:35.527Z,3.10
2019-01-09T04:30:04.421Z,3.10
2019-01-09T04:32:32.900Z,3.10
2019-01-09T04:35:01.801Z,3.10
2019-01-09T04:37:30.146Z,3.00
2019-01-09T04:39:59.292Z,3.10
2019-01-09T04:42:27.658Z,3.00
2019-01-09T04:44:56.012Z,3.00
2019-01-09T04:47:24.424Z,3.10
2019-01-09T04:49:52.791Z,3.10
2019-01-09T04:52:21.147Z,3.10
2019-01-09T04:54:49.554Z,3.10
2019-01-09T04:57:17.923Z,3.10
2019-01-09T04:59:46.293Z,3.20
2019-01-09T05:02:14.712Z,3.20
2019-01-09T05:04:43.083Z,3.10
2019-01-09T05:07:11.443Z,3.10
2019-01-09T05:09:39.840Z,3.00
2019-01-09T05:12:08.208Z,3.00
2019-01-09T05:14:36.567Z,2.90
2019-01-09T05:17:05.339Z,3.00
2019-01-09T05:19:33.699Z,3.10
2019-01-09T05:22:02.065Z,3.10
2019-01-09T05:24:30.467Z,3.00
2019-01-09T05:26:58.827Z,2.90
2019-01-09T05:29:27.190Z,2.90
2019-01-09T05:31:55.879Z,2.80
2019-01-09T05:34:24.251Z,2.90
2019-01-09T05:36:54.700Z,2.90
2019-01-09T05:39:23.760Z,2.90
2019-01-09T05:41:52.121Z,3.00
2019-01-09T05:44:20.487Z,3.00
2019-01-09T05:46:48.882Z,3.00
2019-01-09T05:49:17.239Z,3.00
2019-01-09T05:51:45.607Z,3.00
2019-01-09T05:54:14.019Z,2.90
2019-01-09T05:56:42.383Z,2.90
2019-01-09T05:59:10.748Z,3.00
2019-01-09T06:01:39.249Z,2.90
2019-01-09T06:04:07.608Z,3.00
2019-01-09T06:06:35.972Z,3.00
2019-01-09T06:09:05.260Z,3.00
2019-01-09T06:11:33.576Z,3.00
2019-01-09T06:14:01.941Z,3.00
2019-01-09T06:16:30.332Z,3.00
2019-01-09T06:18:58.699Z,3.00
2019-01-09T06:21:27.093Z,3.10
2019-01-09T06:23:55.486Z,3.20
2019-01-09T06:26:23.855Z,3.10
2019-01-09T06:28:52.219Z,3.00
2019-01-09T06:31:20.623Z,3.00
2019-01-09T06:33:49.348Z,3.00
2019-01-09T06:36:17.709Z,3.00
2019-01-09T06:38:47.071Z,3.00
2019-01-09T06:41:15.431Z,3.00
2019-01-09T06:43:43.799Z,3.00
2019-01-09T06:46:12.220Z,3.00
2019-01-09T06:48:40.584Z,2.90
2019-01-09T06:51:08.951Z,2.90
2019-01-09T06:53:37.427Z,2.70
2019-01-09T06:56:05.800Z,2.70
2019-01-09T06:58:34.164Z,2.70
2019-01-09T07:01:02.752Z,2.60
2019-01-09T07:03:31.113Z,2.60
2019-01-09T07:05:59.480Z,2.50
2019-01-09T07:08:27.871Z,2.40
2019-01-09T07:10:56.239Z,2.20
2019-01-09T07:13:24.603Z,2.20
2019-01-09T07:15:52.999Z,2.10
2019-01-09T07:18:21.363Z,2.20
2019-01-09T07:20:49.736Z,2.10
2019-01-09T07:23:18.711Z,2.30
2019-01-09T07:25:47.083Z,2.30
2019-01-09T07:28:15.447Z,2.30
2019-01-09T07:30:43.848Z,2.30
2019-01-09T07:33:12.219Z,2.30
2019-01-09T07:35:40.576Z,2.30
2019-01-09T07:38:08.994Z,2.40
2019-01-09T07:40:37.527Z,2.30
2019-01-09T07:43:05.887Z,2.30
2019-01-09T07:45:34.667Z,2.20
2019-01-09T07:48:03.027Z,2.30
2019-01-09T07:50:31.400Z,2.40
2019-01-09T07:52:59.808Z,2.40
2019-01-09T07:55:28.175Z,2.60
2019-01-09T07:57:56.535Z,2.60
2019-01-09T08:00:25.030Z,2.60
2019-01-09T08:02:53.412Z,2.60
2019-01-09T08:05:21.796Z,2.70
2019-01-09T08:07:54.196Z,2.60
2019-01-09T08:10:20.196Z,2.70
2019-01-09T08:12:48.564Z,2.70
2019-01-09T08:24:21.323Z,21.50
2019-01-09T08:26:49.683Z,10.10
2019-01-09T08:29:18.052Z,5.80
2019-01-09T08:31:46.448Z,4.30
2019-01-09T08:34:14.811Z,3.40
2019-01-09T08:36:43.166Z,3.20
2019-01-09T08:39:12.025Z,3.00
2019-01-09T08:41:41.600Z,2.90
2019-01-09T08:44:09.983Z,2.80
2019-01-09T08:46:38.396Z,2.80
2019-01-09T08:49:06.756Z,2.90
2019-01-09T08:51:35.123Z,2.90
2019-01-09T08:54:03.539Z,2.90
2019-01-09T08:56:31.913Z,3.00
2019-01-09T08:59:00.282Z,3.00
2019-01-09T09:01:29.656Z,3.00
2019-01-09T09:03:58.074Z,3.10
2019-01-09T09:06:26.434Z,3.00
2019-01-09T09:08:54.840Z,3.00
2019-01-09T09:11:23.199Z,3.00
2019-01-09T09:13:51.563Z,3.10
2019-01-09T09:16:19.963Z,3.10
2019-01-09T09:18:48.331Z,3.20
2019-01-09T09:21:16.704Z,3.30
2019-01-09T09:23:45.098Z,3.40
2019-01-09T09:26:13.467Z,3.40
2019-01-09T09:28:41.835Z,3.40
2019-01-09T09:31:10.244Z,3.30
2019-01-09T09:33:39.044Z,3.20
2019-01-09T09:36:07.403Z,3.40
2019-01-09T09:38:36.626Z,3.40
2019-01-09T09:41:04.984Z,3.40
2019-01-09T09:43:34.626Z,3.50
2019-01-09T09:46:03.019Z,3.40
2019-01-09T09:48:31.389Z,3.50
2019-01-09T09:50:59.756Z,3.40
2019-01-09T09:53:28.159Z,3.30
2019-01-09T09:55:56.519Z,3.20
2019-01-09T09:58:24.883Z,3.20
2019-01-09T10:00:53.471Z,3.30
2019-01-09T10:03:21.840Z,3.30
2019-01-09T10:05:50.203Z,3.30
2019-01-09T10:08:18.616Z,3.20
2019-01-09T10:10:46.975Z,3.20
2019-01-09T10:13:15.340Z,3.30
2019-01-09T10:15:43.732Z,3.30
2019-01-09T10:18:12.098Z,3.20
2019-01-09T10:20:40.463Z,3.20
2019-01-09T10:23:09.427Z,3.30
2019-01-09T10:25:37.891Z,3.30
2019-01-09T10:28:06.419Z,3.30
2019-01-09T10:30:34.815Z,3.40
2019-01-09T10:33:03.184Z,3.40
2019-01-09T10:35:31.551Z,3.50
2019-01-09T10:37:59.960Z,3.40
2019-01-09T10:40:35.843Z,3.40
2019-01-09T10:42:58.356Z,3.30
2019-01-09T10:45:29.070Z,3.30
2019-01-09T10:47:57.426Z,3.40
2019-01-09T10:50:25.800Z,3.40
2019-01-09T10:52:54.191Z,3.40
2019-01-09T10:55:22.555Z,3.60
2019-01-09T10:57:50.915Z,3.60
2019-01-09T11:00:24.195Z,3.60
2019-01-09T11:02:52.558Z,3.50
2019-01-09T11:05:20.915Z,3.40
2019-01-09T11:07:49.535Z,3.40
2019-01-09T11:10:19.244Z,3.40
2019-01-09T11:12:47.605Z,3.40
2019-01-09T11:15:15.997Z,3.50
2019-01-09T11:17:44.363Z,3.40
2019-01-09T11:20:18.736Z,3.40
2019-01-09T11:22:47.138Z,3.40
2019-01-09T11:25:18.412Z,3.30
2019-01-09T11:27:46.788Z,3.30
2019-01-09T11:30:17.627Z,3.40
2019-01-09T11:32:45.991Z,3.40
2019-01-09T11:35:16.499Z,3.50
2019-01-09T11:37:44.890Z,3.50
2019-01-09T11:40:15.800Z,3.60
2019-01-09T11:42:44.167Z,3.40
2019-01-09T11:45:15.116Z,3.30
2019-01-09T11:47:44.376Z,3.20
2019-01-09T11:50:14.089Z,3.30
2019-01-09T11:52:42.639Z,3.40
2019-01-09T11:55:12.439Z,3.50
2019-01-09T11:57:40.807Z,3.50
2019-01-09T12:00:15.555Z,3.60
2019-01-09T12:02:43.919Z,3.70
2019-01-09T12:05:12.283Z,3.90
2019-01-09T12:07:40.691Z,4.00
2019-01-09T12:10:14.991Z,3.90
2019-01-09T12:12:43.419Z,3.80
2019-01-09T12:15:14.350Z,3.80
2019-01-09T12:17:42.711Z,3.70
2019-01-09T12:20:14.025Z,3.70
2019-01-09T12:22:42.431Z,3.50
2019-01-09T12:25:11.435Z,3.50
2019-01-09T12:27:39.797Z,3.40
2019-01-09T12:30:23.923Z,3.30
2019-01-09T12:32:52.730Z,3.20
2019-01-09T12:35:21.085Z,3.20
2019-01-09T12:37:50.160Z,3.20
2019-01-09T12:40:18.499Z,3.10
2019-01-09T12:42:46.865Z,3.00
2019-01-09T12:45:16.708Z,2.80
2019-01-09T12:47:45.072Z,2.80
2019-01-09T12:50:21.598Z,2.70
2019-01-09T12:52:50.051Z,2.60
2019-01-09T12:55:18.420Z,2.70
2019-01-09T12:57:46.820Z,2.70
2019-01-09T13:00:21.146Z,2.70
2019-01-09T13:02:49.511Z,2.50
2019-01-09T13:05:17.919Z,2.50
2019-01-09T13:07:46.278Z,2.50
2019-01-09T13:10:14.647Z,2.50
2019-01-09T13:12:43.223Z,2.40
2019-01-09T13:15:11.746Z,2.50
2019-01-09T13:17:40.106Z,2.50
2019-01-09T13:20:11.779Z,2.40
2019-01-09T13:22:40.139Z,2.50
2019-01-09T13:25:09.684Z,2.40
2019-01-09T13:27:38.808Z,2.40
2019-01-09T13:30:13.343Z,2.40
2019-01-09T13:32:41.708Z,2.40
2019-01-09T13:35:10.111Z,2.40
2019-01-09T13:37:38.479Z,2.30
2019-01-09T13:40:10.098Z,2.30
2019-01-09T13:42:38.512Z,2.50
2019-01-09T13:45:09.515Z,2.30
2019-01-09T13:47:37.892Z,2.30
2019-01-09T13:50:10.837Z,2.40
2019-01-09T13:52:40.183Z,2.40
2019-01-09T13:55:10.584Z,2.30
2019-01-09T13:57:38.991Z,2.30
2019-01-09T14:00:18.449Z,2.20
2019-01-09T14:02:46.864Z,2.30
2019-01-09T14:05:15.291Z,2.40
2019-01-09T14:07:43.650Z,2.40
2019-01-09T14:10:18.774Z,2.50
2019-01-09T14:12:47.146Z,2.40
2019-01-09T14:15:20.075Z,2.30
2019-01-09T14:17:48.555Z,2.20
2019-01-09T14:20:16.917Z,2.10
2019-01-09T14:22:46.729Z,2.10
2019-01-09T14:25:16.618Z,2.00
2019-01-09T14:27:45.043Z,2.10
2019-01-09T14:30:18.515Z,2.10
2019-01-09T14:32:47.627Z,2.20
2019-01-09T14:35:15.991Z,2.20
2019-01-09T14:37:44.356Z,2.20
2019-01-09T14:40:19.932Z,2.00
2019-01-09T14:42:48.295Z,2.10
2019-01-09T14:45:17.198Z,2.00
2019-01-09T14:47:45.592Z,2.00
2019-01-09T14:50:19.652Z,2.10
2019-01-09T14:52:48.011Z,2.10
2019-01-09T14:55:17.111Z,2.10
2019-01-09T14:57:45.548Z,2.10
2019-01-09T15:00:21.849Z,2.10
2019-01-09T15:02:50.209Z,2.10
2019-01-09T15:05:18.575Z,2.10
2019-01-09T15:07:47.140Z,2.00
2019-01-09T15:10:21.143Z,2.00
2019-01-09T15:12:49.503Z,1.90
2019-01-09T15:15:18.899Z,1.90
2019-01-09T15:17:47.303Z,1.90
2019-01-09T15:20:17.366Z,2.00
2019-01-09T15:22:45.695Z,2.00
2019-01-09T15:25:14.991Z,2.00
2019-01-09T15:27:43.363Z,2.00
2019-01-09T15:30:18.151Z,2.00
2019-01-09T15:32:46.547Z,2.00
2019-01-09T15:35:14.907Z,1.90
2019-01-09T15:37:43.314Z,1.90
2019-01-09T15:40:19.736Z,1.90
2019-01-09T15:42:48.680Z,1.90
2019-01-09T15:45:17.039Z,1.80
2019-01-09T15:47:45.412Z,1.80
2019-01-09T15:50:19.945Z,1.80
2019-01-09T15:52:48.295Z,1.80
2019-01-09T15:55:17.416Z,1.80
2019-01-09T15:57:49.311Z,1.70
2019-01-09T16:00:26.391Z,1.80
2019-01-09T16:02:55.152Z,1.70
2019-01-09T16:05:23.524Z,1.70
2019-01-09T16:07:51.888Z,1.70
2019-01-09T16:10:23.311Z,1.70
2019-01-09T16:12:51.681Z,1.70
2019-01-09T16:15:20.184Z,1.60
2019-01-09T16:17:48.756Z,1.70
2019-01-09T16:20:21.952Z,1.70
2019-01-09T16:22:50.317Z,1.70
2019-01-09T16:25:18.860Z,1.70
2019-01-09T16:27:47.223Z,1.60
2019-01-09T16:30:33.889Z,1.70
2019-01-09T16:32:59.135Z,1.60
2019-01-09T16:35:29.941Z,1.60
2019-01-09T16:37:58.353Z,1.60
2019-01-09T16:40:26.711Z,1.60
2019-01-09T16:42:55.083Z,1.60
2019-01-09T16:45:23.496Z,1.60
2019-01-09T16:47:52.144Z,1.60
2019-01-09T16:50:21.943Z,1.50
2019-01-09T16:52:51.463Z,1.60
2019-01-09T16:55:19.827Z,1.60
2019-01-09T16:57:48.194Z,1.70
2019-01-09T17:00:23.256Z,1.60
2019-01-09T17:02:51.624Z,1.50
2019-01-09T17:05:19.984Z,1.60
2019-01-09T17:07:48.407Z,1.60
2019-01-09T17:10:17.137Z,1.60
2019-01-09T17:12:45.500Z,1.60
2019-01-09T17:15:16.831Z,1.60
2019-01-09T17:17:45.363Z,1.70
2019-01-09T17:20:20.280Z,1.60
2019-01-09T17:22:48.666Z,1.60
2019-01-09T17:25:17.108Z,1.60
2019-01-09T17:27:45.516Z,1.70
2019-01-09T17:30:19.622Z,1.60
2019-01-09T17:32:47.972Z,1.70
2019-01-09T17:35:16.763Z,1.60
2019-01-09T17:37:45.214Z,1.70
2019-01-09T17:40:16.395Z,1.60
2019-01-09T17:42:44.791Z,1.70
2019-01-09T17:45:14.642Z,1.60
2019-01-09T17:47:42.999Z,1.70
2019-01-09T17:50:14.780Z,1.60
2019-01-09T17:52:43.175Z,1.60
2019-01-09T17:55:12.379Z,1.60
2019-01-09T17:57:40.798Z,1.70
2019-01-09T18:00:15.039Z,1.70
2019-01-09T18:02:43.888Z,1.70
2019-01-09T18:05:12.260Z,1.70
2019-01-09T18:07:40.619Z,1.70
2019-01-09T18:10:16.156Z,1.60
2019-01-09T18:12:44.758Z,1.60
2019-01-09T18:15:14.563Z,1.60
2019-01-09T18:17:42.964Z,1.60
2019-01-09T18:20:14.172Z,1.60
2019-01-09T18:22:42.539Z,1.60
2019-01-09T18:25:16.539Z,1.60
2019-01-09T18:27:45.119Z,1.70
2019-01-09T18:30:16.679Z,1.70
2019-01-09T18:32:48.175Z,1.70
2019-01-09T18:35:19.796Z,1.70
2019-01-09T18:37:54.632Z,1.70
2019-01-09T18:40:29.411Z,1.60
2019-01-09T18:43:07.303Z,1.70
2019-01-09T18:45:47.759Z,1.60
2019-01-09T18:48:28.767Z,1.60
2019-01-09T18:51:06.111Z,1.60
2019-01-09T18:53:34.815Z,1.60
2019-01-09T18:56:03.251Z,1.70
2019-01-09T18:58:31.616Z,1.70
2019-01-09T19:01:00.040Z,1.60
2019-01-09T19:03:30.292Z,1.60
2019-01-09T19:05:58.955Z,1.60
2019-01-09T19:08:28.145Z,1.60
2019-01-09T19:10:56.516Z,1.60
2019-01-09T19:13:25.065Z,1.60
2019-01-09T19:15:53.480Z,1.60
2019-01-09T19:18:22.035Z,1.70
2019-01-09T19:20:50.579Z,1.70
2019-01-09T19:23:18.998Z,1.70
2019-01-09T19:25:47.359Z,1.70
2019-01-09T19:28:15.723Z,1.70
2019-01-09T19:30:44.839Z,1.60
2019-01-09T19:33:13.208Z,1.50
2019-01-09T19:35:41.568Z,1.60
2019-01-09T19:38:09.984Z,1.70
2019-01-09T19:40:38.355Z,1.70
2019-01-09T19:43:06.710Z,1.60
2019-01-09T19:45:35.173Z,1.60
2019-01-09T19:48:03.491Z,1.70
2019-01-09T19:50:31.853Z,1.70
2019-01-09T19:53:01.084Z,1.70
2019-01-09T19:55:29.451Z,1.80
2019-01-09T19:57:58.208Z,1.80
2019-01-09T20:00:26.605Z,1.70
2019-01-09T20:02:54.977Z,1.80
2019-01-09T20:05:24.617Z,1.80
2019-01-09T20:07:53.007Z,1.70
2019-01-09T20:10:24.027Z,1.90
2019-01-09T20:12:52.401Z,1.90
2019-01-09T20:15:21.760Z,1.90
2019-01-09T20:17:50.129Z,1.90
2019-01-09T20:20:19.731Z,1.90
2019-01-09T20:22:49.214Z,1.90
2019-01-09T20:25:17.555Z,1.90
2019-01-09T20:27:46.056Z,1.80
2019-01-09T20:30:19.513Z,1.90
2019-01-09T20:32:47.715Z,1.90
2019-01-09T20:35:16.203Z,1.90
2019-01-09T20:37:45.938Z,1.90
2019-01-09T20:40:15.209Z,1.80
2019-01-09T20:42:43.567Z,1.80
2019-01-09T20:45:14.611Z,1.80
2019-01-09T20:47:43.356Z,1.80
2019-01-09T20:50:17.948Z,1.70
2019-01-09T20:52:46.352Z,1.80
2019-01-09T20:55:15.193Z,1.70
2019-01-09T20:57:44.724Z,1.70
2019-01-09T21:00:19.039Z,1.70
2019-01-09T21:02:47.441Z,1.70
2019-01-09T21:05:19.143Z,1.80
2019-01-09T21:07:48.704Z,1.70
2019-01-09T21:10:17.507Z,1.60
2019-01-09T21:12:46.994Z,1.60
2019-01-09T21:15:17.691Z,1.70
2019-01-09T21:17:46.091Z,1.50
2019-01-09T21:20:17.308Z,1.70
2019-01-09T21:22:45.734Z,1.70
2019-01-09T21:25:14.478Z,1.70
2019-01-09T21:27:42.812Z,1.70
2019-01-09T21:30:25.544Z,1.70
2019-01-09T21:32:54.340Z,1.70
2019-01-09T21:35:22.784Z,1.80
2019-01-09T21:37:51.160Z,1.70
2019-01-09T21:40:24.607Z,1.70
2019-01-09T21:42:52.973Z,1.70
2019-01-09T21:45:21.330Z,1.70
2019-01-09T21:47:49.751Z,1.80
2019-01-09T21:50:19.661Z,1.80
2019-01-09T21:52:48.099Z,1.70
2019-01-09T21:55:18.170Z,1.80
2019-01-09T21:57:46.903Z,1.80
2019-01-09T22:00:21.416Z,1.70
2019-01-09T22:02:49.782Z,1.80
2019-01-09T22:05:18.320Z,1.70
2019-01-09T22:07:46.713Z,1.80
2019-01-09T22:10:22.643Z,1.70
2019-01-09T22:12:52.399Z,1.70
2019-01-09T22:15:20.767Z,1.70
2019-01-09T22:17:49.134Z,1.70
2019-01-09T22:20:18.001Z,1.90
2019-01-09T22:22:47.115Z,1.80
2019-01-09T22:25:15.488Z,1.80
2019-01-09T22:27:43.904Z,1.80
2019-01-09T22:30:23.575Z,1.80
2019-01-09T22:32:52.569Z,1.80
2019-01-09T22:35:20.930Z,1.80
2019-01-09T22:37:49.303Z,1.80
2019-01-09T22:40:21.643Z,1.80
2019-01-09T22:42:50.009Z,1.80
2019-01-09T22:45:18.375Z,1.90
2019-01-09T22:47:46.791Z,1.90
2019-01-09T22:50:17.664Z,1.90
2019-01-09T22:52:46.035Z,1.80
2019-01-09T22:55:14.976Z,1.80
2019-01-09T22:57:43.334Z,1.70
2019-01-09T23:00:27.375Z,1.80
2019-01-09T23:02:55.739Z,1.80
2019-01-09T23:05:24.107Z,1.80
2019-01-09T23:07:52.520Z,1.80
2019-01-09T23:10:20.891Z,1.80
2019-01-09T23:12:50.194Z,2.00
2019-01-09T23:15:19.323Z,1.90
2019-01-09T23:17:47.794Z,1.80
2019-01-09T23:20:16.157Z,1.90
2019-01-09T23:22:44.570Z,1.80
2019-01-09T23:25:12.930Z,1.80
2019-01-09T23:27:41.334Z,1.90
2019-01-09T23:30:11.256Z,1.80
2019-01-09T23:32:39.694Z,1.80
2019-01-09T23:35:10.038Z,1.80
2019-01-09T23:37:39.285Z,1.80
2019-01-09T23:40:15.071Z,1.80
2019-01-09T23:42:43.471Z,1.80
2019-01-09T23:45:13.074Z,1.80
2019-01-09T23:47:41.430Z,1.90
2019-01-09T23:50:10.988Z,2.00
2019-01-09T23:52:39.360Z,1.90
2019-01-09T23:55:10.215Z,1.90
2019-01-09T23:57:39.335Z,1.90
